createdAt,value
2023-03-29T04:15:09.111Z,0.00
2023-03-29T04:16:09.108Z,0.00
2023-03-29T04:17:09.074Z,0.00
2023-03-29T04:18:09.170Z,0.00
2023-03-29T04:19:09.047Z,0.00
2023-03-29T04:20:09.029Z,0.00
2023-03-29T04:21:09.021Z,0.00
2023-03-29T04:22:09.005Z,0.00
2023-03-29T04:23:09.011Z,0.00
2023-03-29T04:24:08.982Z,0.00
2023-03-29T04:25:08.975Z,0.00
2023-03-29T04:26:08.954Z,0.00
2023-03-29T04:27:08.945Z,0.00
2023-03-29T04:28:08.935Z,0.00
2023-03-29T04:29:08.920Z,0.00
2023-03-29T04:30:08.907Z,0.00
2023-03-29T04:31:08.941Z,0.00
2023-03-29T04:32:08.882Z,0.00
2023-03-29T04:33:08.980Z,0.00
2023-03-29T04:34:08.868Z,0.00
2023-03-29T04:35:08.862Z,0.00
2023-03-29T04:36:08.894Z,0.00
2023-03-29T04:37:08.826Z,0.00
2023-03-29T04:38:08.826Z,0.00
2023-03-29T04:39:08.809Z,0.00
2023-03-29T04:40:08.787Z,0.00
2023-03-29T04:41:08.792Z,0.00
2023-03-29T04:42:08.778Z,0.00
2023-03-29T04:43:08.760Z,0.00
2023-03-29T04:44:08.742Z,0.00
2023-03-29T04:45:08.805Z,0.00
2023-03-29T04:46:08.732Z,0.00
2023-03-29T04:47:08.720Z,0.00
2023-03-29T04:48:08.770Z,0.00
2023-03-29T04:49:08.673Z,4.00
2023-03-29T04:50:08.658Z,4.00
2023-03-29T04:51:08.656Z,0.00
2023-03-29T04:52:08.629Z,0.00
2023-03-29T04:53:08.635Z,4.00
2023-03-29T04:54:08.612Z,4.00
2023-03-29T04:55:08.626Z,4.00
2023-03-29T04:56:08.587Z,4.00
2023-03-29T04:57:08.663Z,0.00
2023-03-29T04:58:08.576Z,4.00
2023-03-29T04:59:08.555Z,4.00
2023-03-29T05:00:08.562Z,8.00
2023-03-29T05:01:08.525Z,8.00
2023-03-29T05:02:08.562Z,8.00
2023-03-29T05:03:08.607Z,8.00
2023-03-29T05:04:10.192Z,12.00
2023-03-29T05:05:08.480Z,12.00
2023-03-29T05:06:08.452Z,16.00
2023-03-29T05:07:08.435Z,20.00
2023-03-29T05:08:08.436Z,24.00
2023-03-29T05:09:08.413Z,24.00
2023-03-29T05:10:08.402Z,28.00
2023-03-29T05:11:08.393Z,32.00
2023-03-29T05:12:08.375Z,36.00
2023-03-29T05:13:08.386Z,40.00
2023-03-29T05:14:08.352Z,40.00
2023-03-29T05:15:08.370Z,44.00
2023-03-29T05:16:08.383Z,48.00
2023-03-29T05:17:08.320Z,52.00
2023-03-29T05:18:08.392Z,52.00
2023-03-29T05:19:08.286Z,52.00
2023-03-29T05:20:08.265Z,56.00
2023-03-29T05:21:08.278Z,60.00
2023-03-29T05:22:08.277Z,64.00
2023-03-29T05:23:08.257Z,72.00
2023-03-29T05:24:08.227Z,72.00
2023-03-29T05:25:08.220Z,80.00
2023-03-29T05:26:08.195Z,88.00
2023-03-29T05:27:08.244Z,92.00
2023-03-29T05:28:08.196Z,96.00
2023-03-29T05:29:08.166Z,108.00
2023-03-29T05:30:08.154Z,108.00
2023-03-29T05:31:08.152Z,112.00
2023-03-29T05:32:08.231Z,124.00
2023-03-29T05:33:08.154Z,136.00
2023-03-29T05:34:08.125Z,144.00
2023-03-29T05:35:08.094Z,144.00
2023-03-29T05:36:08.126Z,136.00
2023-03-29T05:37:08.050Z,140.00
2023-03-29T05:38:08.039Z,144.00
2023-03-29T05:39:08.042Z,136.00
2023-03-29T05:40:08.091Z,136.00
2023-03-29T05:41:08.008Z,144.00
2023-03-29T05:42:07.984Z,168.00
2023-03-29T05:43:07.977Z,176.00
2023-03-29T05:44:07.971Z,176.00
2023-03-29T05:45:07.959Z,192.00
2023-03-29T05:46:07.978Z,204.00
2023-03-29T05:47:07.921Z,192.00
2023-03-29T05:48:07.928Z,188.00
2023-03-29T05:49:07.908Z,192.00
2023-03-29T05:50:07.883Z,208.00
2023-03-29T05:51:07.874Z,236.00
2023-03-29T05:52:07.852Z,268.00
2023-03-29T05:53:07.848Z,288.00
2023-03-29T05:54:07.837Z,288.00
2023-03-29T05:55:07.821Z,284.00
2023-03-29T05:56:07.806Z,292.00
2023-03-29T05:57:07.836Z,308.00
2023-03-29T05:58:07.774Z,332.00
2023-03-29T05:59:07.781Z,360.00
2023-03-29T06:00:07.765Z,376.00
2023-03-29T06:01:07.738Z,404.00
2023-03-29T06:02:07.774Z,408.00
2023-03-29T06:03:14.060Z,420.00
2023-03-29T06:04:08.828Z,428.00
2023-03-29T06:05:07.803Z,440.00
2023-03-29T06:06:07.673Z,456.00
2023-03-29T06:07:07.720Z,464.00
2023-03-29T06:08:07.648Z,484.00
2023-03-29T06:09:07.642Z,540.00
2023-03-29T06:10:07.618Z,576.00
2023-03-29T06:11:07.927Z,580.00
2023-03-29T06:12:07.596Z,568.00
2023-03-29T06:13:07.587Z,612.00
2023-03-29T06:14:07.573Z,668.00
2023-03-29T06:15:07.565Z,720.00
2023-03-29T06:16:07.563Z,732.00
2023-03-29T06:17:07.595Z,720.00
2023-03-29T06:18:07.552Z,776.00
2023-03-29T06:19:07.520Z,812.00
2023-03-29T06:20:07.500Z,832.00
2023-03-29T06:21:07.485Z,880.00
2023-03-29T06:22:07.527Z,976.00
2023-03-29T06:23:07.461Z,1004.00
2023-03-29T06:24:07.438Z,980.00
2023-03-29T06:25:07.430Z,928.00
2023-03-29T06:26:07.415Z,912.00
2023-03-29T06:27:07.399Z,928.00
2023-03-29T06:28:07.382Z,944.00
2023-03-29T06:29:07.406Z,996.00
2023-03-29T06:30:07.364Z,1044.00
2023-03-29T06:31:07.471Z,1004.00
2023-03-29T06:32:07.334Z,996.00
2023-03-29T06:33:07.371Z,1012.00
2023-03-29T06:34:07.306Z,1032.00
2023-03-29T06:35:07.329Z,1104.00
2023-03-29T06:36:07.444Z,1196.00
2023-03-29T06:37:07.276Z,1264.00
2023-03-29T06:38:07.254Z,1308.00
2023-03-29T06:39:07.257Z,1344.00
2023-03-29T06:40:07.267Z,1376.00
2023-03-29T06:41:07.277Z,1384.00
2023-03-29T06:42:19.929Z,1416.00
2023-03-29T06:43:08.195Z,1504.00
2023-03-29T06:44:07.191Z,1576.00
2023-03-29T06:45:07.184Z,1604.00
2023-03-29T06:46:07.185Z,1636.00
2023-03-29T06:47:14.209Z,1700.00
2023-03-29T06:48:07.183Z,1768.00
2023-03-29T06:49:07.173Z,1812.00
2023-03-29T06:50:07.114Z,1752.00
2023-03-29T06:51:07.088Z,1760.00
2023-03-29T06:52:07.143Z,1820.00
2023-03-29T06:53:07.068Z,1836.00
2023-03-29T06:54:07.049Z,1776.00
2023-03-29T06:55:07.052Z,1716.00
2023-03-29T06:56:07.033Z,1664.00
2023-03-29T06:57:07.073Z,1600.00
2023-03-29T06:58:07.008Z,1560.00
2023-03-29T06:59:07.002Z,1504.00
2023-03-29T07:00:06.984Z,1424.00
2023-03-29T07:01:07.174Z,1360.00
2023-03-29T07:02:07.009Z,1344.00
2023-03-29T07:03:07.022Z,1328.00
2023-03-29T07:04:06.946Z,1300.00
2023-03-29T07:05:06.925Z,1292.00
2023-03-29T07:06:06.897Z,1288.00
2023-03-29T07:07:06.886Z,1300.00
2023-03-29T07:08:06.882Z,1320.00
2023-03-29T07:09:06.879Z,1348.00
2023-03-29T07:10:06.858Z,1424.00
2023-03-29T07:11:06.824Z,1588.00
2023-03-29T07:12:06.820Z,1708.00
2023-03-29T07:13:06.798Z,1760.00
2023-03-29T07:14:06.792Z,1796.00
2023-03-29T07:15:06.795Z,1848.00
2023-03-29T07:16:06.853Z,1788.00
2023-03-29T07:17:06.764Z,1696.00
2023-03-29T07:18:06.815Z,1640.00
2023-03-29T07:19:06.722Z,1608.00
2023-03-29T07:20:06.728Z,1612.00
2023-03-29T07:21:06.705Z,1680.00
2023-03-29T07:22:06.691Z,1656.00
2023-03-29T07:23:06.673Z,1540.00
2023-03-29T07:24:06.690Z,1428.00
2023-03-29T07:25:06.654Z,1400.00
2023-03-29T07:26:06.634Z,1424.00
2023-03-29T07:27:06.663Z,1468.00
2023-03-29T07:28:06.613Z,1540.00
2023-03-29T07:29:06.620Z,1632.00
2023-03-29T07:30:07.387Z,1696.00
2023-03-29T07:31:06.568Z,1760.00
2023-03-29T07:32:06.558Z,1820.00
2023-03-29T07:33:06.668Z,1872.00
2023-03-29T07:34:06.530Z,1920.00
2023-03-29T07:35:06.515Z,1928.00
2023-03-29T07:36:06.578Z,1984.00
2023-03-29T07:37:06.494Z,2064.00
2023-03-29T07:38:06.481Z,2148.00
2023-03-29T07:39:06.479Z,2296.00
2023-03-29T07:40:06.468Z,2384.00
2023-03-29T07:41:06.449Z,2492.00
2023-03-29T07:42:06.442Z,2700.00
2023-03-29T07:43:06.416Z,2676.00
2023-03-29T07:44:06.402Z,2708.00
2023-03-29T07:45:06.387Z,2860.00
2023-03-29T07:46:06.460Z,2932.00
2023-03-29T07:47:06.361Z,3072.00
2023-03-29T07:48:06.434Z,3264.00
2023-03-29T07:49:06.332Z,3328.00
2023-03-29T07:50:06.328Z,3168.00
2023-03-29T07:51:06.337Z,2936.00
2023-03-29T07:52:06.293Z,2648.00
2023-03-29T07:53:06.286Z,2692.00
2023-03-29T07:54:06.271Z,2896.00
2023-03-29T07:55:06.255Z,2992.00
2023-03-29T07:56:06.261Z,2908.00
2023-03-29T07:57:06.273Z,2836.00
2023-03-29T07:58:06.228Z,2960.00
2023-03-29T07:59:06.235Z,3464.00
2023-03-29T08:00:06.192Z,3988.00
2023-03-29T08:01:06.605Z,4240.00
2023-03-29T08:02:06.172Z,4448.00
2023-03-29T08:03:06.196Z,4692.00
2023-03-29T08:04:06.277Z,5028.00
2023-03-29T08:05:06.179Z,5372.00
2023-03-29T08:06:06.130Z,5588.00
2023-03-29T08:07:06.100Z,5228.00
2023-03-29T08:08:06.092Z,4248.00
2023-03-29T08:09:06.074Z,3752.00
2023-03-29T08:10:06.068Z,3672.00
2023-03-29T08:11:06.061Z,4076.00
2023-03-29T08:12:06.061Z,4772.00
2023-03-29T08:13:06.030Z,5808.00
2023-03-29T08:14:06.016Z,7100.00
2023-03-29T08:15:06.001Z,7960.00
2023-03-29T08:16:06.010Z,7824.00
2023-03-29T08:17:06.049Z,7024.00
2023-03-29T08:18:06.036Z,6392.00
2023-03-29T08:19:05.951Z,6428.00
2023-03-29T08:20:05.949Z,6300.00
2023-03-29T08:21:06.040Z,6280.00
2023-03-29T08:22:05.912Z,6052.00
2023-03-29T08:23:05.896Z,5508.00
2023-03-29T08:24:05.895Z,5108.00
2023-03-29T08:25:05.865Z,4784.00
2023-03-29T08:26:05.879Z,4424.00
2023-03-29T08:27:05.847Z,4892.00
2023-03-29T08:28:05.844Z,5740.00
2023-03-29T08:29:05.846Z,5396.00
2023-03-29T08:30:05.812Z,4868.00
2023-03-29T08:31:05.962Z,5096.00
2023-03-29T08:32:05.797Z,5072.00
2023-03-29T08:33:05.923Z,5160.00
2023-03-29T08:34:05.761Z,5640.00
2023-03-29T08:35:05.828Z,6048.00
2023-03-29T08:36:05.769Z,6148.00
2023-03-29T08:37:05.719Z,5848.00
2023-03-29T08:38:05.709Z,5036.00
2023-03-29T08:39:05.706Z,4520.00
2023-03-29T08:40:05.687Z,4384.00
2023-03-29T08:41:05.685Z,4236.00
2023-03-29T08:42:05.662Z,4584.00
2023-03-29T08:43:05.746Z,4752.00
2023-03-29T08:44:05.643Z,4560.00
2023-03-29T08:45:05.653Z,4236.00
2023-03-29T08:46:05.646Z,3912.00
2023-03-29T08:47:05.622Z,3612.00
2023-03-29T08:48:05.645Z,3628.00
2023-03-29T08:49:05.588Z,3568.00
2023-03-29T08:50:05.567Z,3268.00
2023-03-29T08:51:07.769Z,3352.00
2023-03-29T08:52:05.548Z,3464.00
2023-03-29T08:53:05.582Z,3536.00
2023-03-29T08:54:05.532Z,3596.00
2023-03-29T08:55:05.497Z,3788.00
2023-03-29T08:56:05.514Z,4100.00
2023-03-29T08:57:05.539Z,4380.00
2023-03-29T08:58:05.455Z,4484.00
2023-03-29T08:59:05.448Z,4628.00
2023-03-29T09:00:05.445Z,4868.00
2023-03-29T09:01:05.615Z,5296.00
2023-03-29T09:02:05.483Z,5224.00
2023-03-29T09:03:05.477Z,5556.00
2023-03-29T09:04:05.442Z,5588.00
2023-03-29T09:05:05.379Z,5156.00
2023-03-29T09:06:05.361Z,4364.00
2023-03-29T09:07:05.362Z,3760.00
2023-03-29T09:08:05.341Z,3608.00
2023-03-29T09:09:05.325Z,3716.00
2023-03-29T09:10:05.308Z,3876.00
2023-03-29T09:11:05.289Z,4748.00
2023-03-29T09:12:05.299Z,5960.00
2023-03-29T09:13:05.315Z,6416.00
2023-03-29T09:14:05.260Z,6204.00
2023-03-29T09:15:05.280Z,6020.00
2023-03-29T09:16:05.307Z,5964.00
2023-03-29T09:17:05.226Z,5236.00
2023-03-29T09:18:05.226Z,4976.00
2023-03-29T09:19:05.181Z,4528.00
2023-03-29T09:20:05.197Z,4132.00
2023-03-29T09:21:05.169Z,4340.00
2023-03-29T09:22:05.163Z,4680.00
2023-03-29T09:23:05.133Z,5192.00
2023-03-29T09:24:05.130Z,5024.00
2023-03-29T09:25:05.158Z,5016.00
2023-03-29T09:26:05.096Z,5128.00
2023-03-29T09:27:05.095Z,5148.00
2023-03-29T09:28:05.070Z,5608.00
2023-03-29T09:29:06.135Z,6376.00
2023-03-29T09:30:05.041Z,6692.00
2023-03-29T09:31:05.339Z,6572.00
2023-03-29T09:32:05.053Z,5384.00
2023-03-29T09:33:05.063Z,4956.00
2023-03-29T09:34:05.000Z,5248.00
2023-03-29T09:35:04.979Z,5604.00
2023-03-29T09:36:05.051Z,5808.00
2023-03-29T09:37:04.978Z,5504.00
2023-03-29T09:38:04.950Z,5484.00
2023-03-29T09:39:04.979Z,5740.00
2023-03-29T09:40:05.336Z,5752.00
2023-03-29T09:41:05.362Z,5360.00
2023-03-29T09:42:04.939Z,5136.00
2023-03-29T09:43:04.919Z,4720.00
2023-03-29T09:44:04.859Z,4360.00
2023-03-29T09:45:04.840Z,4088.00
2023-03-29T09:46:04.857Z,3844.00
2023-03-29T09:47:04.814Z,3340.00
2023-03-29T09:48:04.836Z,3300.00
2023-03-29T09:49:04.790Z,3300.00
2023-03-29T09:50:04.770Z,3100.00
2023-03-29T09:51:05.041Z,3064.00
2023-03-29T09:52:04.756Z,3252.00
2023-03-29T09:53:04.753Z,3184.00
2023-03-29T09:54:04.725Z,2912.00
2023-03-29T09:55:04.721Z,2796.00
2023-03-29T09:56:04.709Z,3024.00
2023-03-29T09:57:04.791Z,3540.00
2023-03-29T09:58:04.685Z,4028.00
2023-03-29T09:59:04.662Z,4252.00
2023-03-29T10:00:04.659Z,4232.00
2023-03-29T10:01:04.798Z,4296.00
2023-03-29T10:02:04.625Z,4180.00
2023-03-29T10:03:04.710Z,3800.00
2023-03-29T10:04:04.620Z,3692.00
2023-03-29T10:05:04.606Z,4072.00
2023-03-29T10:06:04.570Z,4004.00
2023-03-29T10:07:04.567Z,3324.00
2023-03-29T10:08:04.553Z,2600.00
2023-03-29T10:09:04.543Z,2108.00
2023-03-29T10:10:04.518Z,1860.00
2023-03-29T10:11:04.745Z,1848.00
2023-03-29T10:12:04.515Z,2028.00
2023-03-29T10:13:04.495Z,2468.00
2023-03-29T10:14:04.479Z,2580.00
2023-03-29T10:15:04.471Z,2560.00
2023-03-29T10:16:04.477Z,2496.00
2023-03-29T10:17:04.434Z,2512.00
2023-03-29T10:18:04.524Z,2684.00
2023-03-29T10:19:04.409Z,2964.00
2023-03-29T10:20:04.652Z,3016.00
2023-03-29T10:21:04.528Z,2896.00
2023-03-29T10:22:04.374Z,2900.00
2023-03-29T10:23:04.398Z,3556.00
2023-03-29T10:24:04.350Z,4328.00
2023-03-29T10:25:04.338Z,4404.00
2023-03-29T10:26:04.369Z,3680.00
2023-03-29T10:27:04.322Z,3088.00
2023-03-29T10:28:04.300Z,2968.00
2023-03-29T10:29:04.291Z,2864.00
2023-03-29T10:30:04.267Z,2896.00
2023-03-29T10:31:04.533Z,2752.00
2023-03-29T10:32:04.299Z,2488.00
2023-03-29T10:33:04.287Z,3076.00
2023-03-29T10:34:04.225Z,3996.00
2023-03-29T10:35:04.209Z,3580.00
2023-03-29T10:36:04.232Z,3540.00
2023-03-29T10:37:04.196Z,4448.00
2023-03-29T10:38:04.178Z,5148.00
2023-03-29T10:39:05.941Z,4120.00
2023-03-29T10:40:04.133Z,3804.00
2023-03-29T10:41:04.361Z,3628.00
2023-03-29T10:42:04.154Z,3448.00
2023-03-29T10:43:04.116Z,3468.00
2023-03-29T10:44:04.090Z,3544.00
2023-03-29T10:45:04.083Z,3580.00
2023-03-29T10:46:04.126Z,3676.00
2023-03-29T10:47:04.065Z,3692.00
2023-03-29T10:48:04.076Z,2948.00
2023-03-29T10:49:04.028Z,2748.00
2023-03-29T10:50:04.019Z,3116.00
2023-03-29T10:51:04.283Z,3824.00
2023-03-29T10:52:03.995Z,3256.00
2023-03-29T10:53:04.005Z,2576.00
2023-03-29T10:54:03.969Z,2196.00
2023-03-29T10:55:03.954Z,1816.00
2023-03-29T10:56:03.937Z,2224.00
2023-03-29T10:57:03.978Z,2724.00
2023-03-29T10:58:03.910Z,3340.00
2023-03-29T10:59:03.923Z,4036.00
2023-03-29T11:00:03.893Z,4472.00
2023-03-29T11:01:04.144Z,4664.00
2023-03-29T11:02:03.885Z,4176.00
2023-03-29T11:03:03.948Z,4556.00
2023-03-29T11:04:03.983Z,5108.00
2023-03-29T11:05:03.849Z,4612.00
2023-03-29T11:06:03.813Z,4860.00
2023-03-29T11:07:03.807Z,5468.00
2023-03-29T11:08:03.786Z,6512.00
2023-03-29T11:09:03.779Z,7456.00
2023-03-29T11:10:03.759Z,8644.00
2023-03-29T11:11:03.988Z,9480.00
2023-03-29T11:12:15.003Z,10712.00
2023-03-29T11:13:04.710Z,12340.00
2023-03-29T11:14:03.723Z,15776.00
2023-03-29T11:15:03.689Z,16704.00
2023-03-29T11:16:03.727Z,11076.00
2023-03-29T11:17:03.680Z,9284.00
2023-03-29T11:18:03.694Z,9768.00
2023-03-29T11:19:03.645Z,7944.00
2023-03-29T11:20:05.207Z,6776.00
2023-03-29T11:21:06.733Z,5620.00
2023-03-29T11:22:03.603Z,6592.00
2023-03-29T11:23:03.589Z,7552.00
2023-03-29T11:24:03.585Z,9608.00
2023-03-29T11:25:03.557Z,13252.00
2023-03-29T11:26:03.546Z,12536.00
2023-03-29T11:27:03.531Z,13480.00
2023-03-29T11:28:03.519Z,14144.00
2023-03-29T11:29:03.509Z,11908.00
2023-03-29T11:30:03.508Z,9372.00
2023-03-29T11:31:03.665Z,8320.00
2023-03-29T11:32:03.512Z,9516.00
2023-03-29T11:33:03.495Z,9836.00
2023-03-29T11:34:03.448Z,8708.00
2023-03-29T11:35:03.419Z,10512.00
2023-03-29T11:36:03.455Z,13568.00
2023-03-29T11:37:03.410Z,16032.00
2023-03-29T11:38:03.393Z,15872.00
2023-03-29T11:39:03.381Z,17568.00
2023-03-29T11:40:03.358Z,21440.00
2023-03-29T11:41:03.617Z,30912.00
2023-03-29T11:42:03.336Z,24160.00
2023-03-29T11:43:03.316Z,16640.00
2023-03-29T11:44:03.330Z,12256.00
2023-03-29T11:45:03.296Z,9384.00
2023-03-29T11:46:03.288Z,9016.00
2023-03-29T11:47:03.327Z,7336.00
2023-03-29T11:48:03.284Z,7388.00
2023-03-29T11:49:03.250Z,7540.00
2023-03-29T11:50:03.243Z,8224.00
2023-03-29T11:51:03.366Z,7540.00
2023-03-29T11:52:03.222Z,7200.00
2023-03-29T11:53:03.199Z,7180.00
2023-03-29T11:54:03.208Z,7188.00
2023-03-29T11:55:03.187Z,7728.00
2023-03-29T11:56:03.156Z,7244.00
2023-03-29T11:57:03.200Z,5760.00
2023-03-29T11:58:03.142Z,5176.00
2023-03-29T11:59:03.125Z,5296.00
2023-03-29T12:00:03.110Z,5420.00
2023-03-29T12:01:03.443Z,5676.00
2023-03-29T12:02:03.112Z,5808.00
2023-03-29T12:03:03.204Z,6428.00
2023-03-29T12:04:03.222Z,5972.00
2023-03-29T12:05:03.078Z,5364.00
2023-03-29T12:06:03.028Z,5960.00
2023-03-29T12:07:03.023Z,6496.00
2023-03-29T12:08:03.003Z,7784.00
2023-03-29T12:09:03.003Z,8964.00
2023-03-29T12:10:02.974Z,8756.00
2023-03-29T12:11:03.166Z,8208.00
2023-03-29T12:12:02.968Z,7516.00
2023-03-29T12:13:02.936Z,8004.00
2023-03-29T12:14:02.951Z,8348.00
2023-03-29T12:15:02.904Z,6836.00
2023-03-29T12:16:02.938Z,5964.00
2023-03-29T12:17:02.934Z,6024.00
2023-03-29T12:18:02.929Z,6008.00
2023-03-29T12:19:02.854Z,5548.00
2023-03-29T12:20:02.854Z,5172.00
2023-03-29T12:21:02.826Z,4740.00
2023-03-29T12:22:02.835Z,4640.00
2023-03-29T12:23:02.807Z,4760.00
2023-03-29T12:24:02.801Z,4344.00
2023-03-29T12:25:02.797Z,3880.00
2023-03-29T12:26:02.764Z,3696.00
2023-03-29T12:27:02.757Z,3736.00
2023-03-29T12:28:02.749Z,3788.00
2023-03-29T12:29:02.729Z,3952.00
2023-03-29T12:30:02.809Z,3996.00
2023-03-29T12:31:02.932Z,4208.00
2023-03-29T12:32:02.763Z,4512.00
2023-03-29T12:33:02.738Z,4568.00
2023-03-29T12:34:02.693Z,4328.00
2023-03-29T12:35:02.667Z,3708.00
2023-03-29T12:36:02.692Z,3788.00
2023-03-29T12:37:02.646Z,4176.00
2023-03-29T12:38:02.654Z,3864.00
2023-03-29T12:39:02.619Z,3132.00
2023-03-29T12:40:02.608Z,3312.00
2023-03-29T12:41:02.735Z,2940.00
2023-03-29T12:42:02.577Z,2672.00
2023-03-29T12:43:02.560Z,2820.00
2023-03-29T12:44:02.563Z,3144.00
2023-03-29T12:45:02.588Z,3520.00
2023-03-29T12:46:02.678Z,3556.00
2023-03-29T12:47:02.523Z,3756.00
2023-03-29T12:48:54.764Z,4508.00
2023-03-29T12:49:54.765Z,4504.00
2023-03-29T12:50:54.759Z,4628.00
2023-03-29T12:51:54.728Z,5180.00
2023-03-29T12:52:54.711Z,5716.00
2023-03-29T12:53:54.703Z,5736.00
2023-03-29T12:54:54.735Z,4916.00
2023-03-29T12:55:54.685Z,4476.00
2023-03-29T12:56:54.711Z,4144.00
2023-03-29T12:57:54.650Z,4096.00
2023-03-29T12:58:54.633Z,4384.00
2023-03-29T12:59:54.644Z,4860.00
2023-03-29T13:00:54.635Z,5404.00
2023-03-29T13:01:54.693Z,5920.00
2023-03-29T13:02:54.581Z,6684.00
2023-03-29T13:03:54.577Z,6540.00
2023-03-29T13:04:54.616Z,5868.00
2023-03-29T13:05:54.541Z,5388.00
2023-03-29T13:06:54.533Z,5064.00
2023-03-29T13:07:54.529Z,4852.00
2023-03-29T13:08:54.496Z,4780.00
2023-03-29T13:09:54.609Z,4708.00
2023-03-29T13:10:54.475Z,4472.00
2023-03-29T13:11:54.460Z,4304.00
2023-03-29T13:12:54.444Z,4292.00
2023-03-29T13:13:54.436Z,4264.00
2023-03-29T13:14:54.534Z,4504.00
2023-03-29T13:15:54.574Z,4612.00
2023-03-29T13:16:54.401Z,4556.00
2023-03-29T13:17:54.429Z,4320.00
2023-03-29T13:18:54.413Z,4104.00
2023-03-29T13:19:54.385Z,3820.00
2023-03-29T13:20:54.346Z,3588.00
2023-03-29T13:21:54.337Z,3520.00
2023-03-29T13:22:54.316Z,3436.00
2023-03-29T13:23:54.304Z,3460.00
2023-03-29T13:24:54.370Z,3860.00
2023-03-29T13:25:54.278Z,3632.00
2023-03-29T13:26:54.294Z,3376.00
2023-03-29T13:27:54.277Z,3524.00
2023-03-29T13:28:55.971Z,3776.00
2023-03-29T13:29:54.246Z,3644.00
2023-03-29T13:30:54.240Z,3748.00
2023-03-29T13:31:54.192Z,3860.00
2023-03-29T13:32:54.185Z,4000.00
2023-03-29T13:33:54.165Z,4252.00
2023-03-29T13:34:54.347Z,4948.00
2023-03-29T13:35:54.169Z,5844.00
2023-03-29T13:36:54.128Z,6964.00
2023-03-29T13:37:54.128Z,7820.00
2023-03-29T13:38:54.140Z,9164.00
2023-03-29T13:39:54.095Z,9304.00
2023-03-29T13:40:54.080Z,8380.00
2023-03-29T13:41:54.068Z,8056.00
2023-03-29T13:42:54.041Z,8664.00
2023-03-29T13:43:54.035Z,8796.00
2023-03-29T13:44:54.013Z,6064.00
2023-03-29T13:45:54.021Z,5196.00
2023-03-29T13:46:54.082Z,5188.00
2023-03-29T13:48:04.647Z,5100.00
2023-03-29T13:48:54.991Z,5064.00
2023-03-29T13:49:53.964Z,5156.00
2023-03-29T13:50:53.952Z,5756.00
2023-03-29T13:51:53.952Z,6472.00
2023-03-29T13:52:53.916Z,6756.00
2023-03-29T13:53:53.907Z,7636.00
2023-03-29T13:54:53.884Z,9160.00
2023-03-29T13:55:53.886Z,10248.00
2023-03-29T13:56:53.921Z,10724.00
2023-03-29T13:57:53.852Z,10888.00
2023-03-29T13:58:53.851Z,13440.00
2023-03-29T13:59:53.835Z,14812.00
2023-03-29T14:00:53.889Z,12468.00
2023-03-29T14:01:53.855Z,12944.00
2023-03-29T14:02:53.800Z,10004.00
2023-03-29T14:03:53.786Z,8992.00
2023-03-29T14:04:53.758Z,8712.00
2023-03-29T14:05:53.790Z,11160.00
2023-03-29T14:06:53.729Z,13344.00
2023-03-29T14:07:53.717Z,10992.00
2023-03-29T14:08:53.708Z,13460.00
2023-03-29T14:09:53.690Z,10792.00
2023-03-29T14:10:53.690Z,8788.00
2023-03-29T14:11:53.658Z,7536.00
2023-03-29T14:12:53.652Z,7808.00
2023-03-29T14:13:53.634Z,8252.00
2023-03-29T14:14:59.278Z,12360.00
2023-03-29T14:15:54.612Z,14768.00
2023-03-29T14:16:53.630Z,15904.00
2023-03-29T14:17:53.610Z,15968.00
2023-03-29T14:18:53.574Z,13728.00
2023-03-29T14:19:53.570Z,12292.00
2023-03-29T14:20:53.565Z,14456.00
2023-03-29T14:21:53.526Z,15872.00
2023-03-29T14:22:53.527Z,14908.00
2023-03-29T14:23:53.502Z,11596.00
2023-03-29T14:24:53.494Z,13140.00
2023-03-29T14:25:53.489Z,12040.00
2023-03-29T14:26:53.466Z,15068.00
2023-03-29T14:27:53.451Z,12204.00
2023-03-29T14:28:53.438Z,9760.00
2023-03-29T14:29:53.432Z,7732.00
2023-03-29T14:30:53.451Z,6116.00
2023-03-29T14:31:53.507Z,4656.00
2023-03-29T14:32:53.478Z,3696.00
2023-03-29T14:33:53.384Z,3424.00
2023-03-29T14:34:53.361Z,3696.00
2023-03-29T14:35:53.445Z,4500.00
2023-03-29T14:36:53.409Z,4876.00
2023-03-29T14:37:53.323Z,4924.00
2023-03-29T14:38:53.322Z,4652.00
2023-03-29T14:39:53.308Z,3988.00
2023-03-29T14:40:53.380Z,3476.00
2023-03-29T14:41:53.280Z,3220.00
2023-03-29T14:42:53.263Z,3284.00
2023-03-29T14:43:53.239Z,3408.00
2023-03-29T14:44:53.232Z,3580.00
2023-03-29T14:45:53.236Z,3884.00
2023-03-29T14:46:53.232Z,4236.00
2023-03-29T14:47:53.284Z,4464.00
2023-03-29T14:48:53.179Z,5352.00
2023-03-29T14:49:53.155Z,8784.00
2023-03-29T14:50:53.158Z,11620.00
2023-03-29T14:51:53.147Z,9580.00
2023-03-29T14:52:53.123Z,12388.00
2023-03-29T14:53:53.108Z,13444.00
2023-03-29T14:54:53.122Z,13748.00
2023-03-29T14:55:53.084Z,11368.00
2023-03-29T14:56:53.135Z,12292.00
2023-03-29T14:57:53.058Z,11516.00
2023-03-29T14:58:53.060Z,11532.00
2023-03-29T14:59:53.033Z,13380.00
2023-03-29T15:00:53.037Z,13204.00
2023-03-29T15:01:53.391Z,11004.00
2023-03-29T15:02:53.096Z,9940.00
2023-03-29T15:03:54.728Z,12952.00
2023-03-29T15:04:52.965Z,12764.00
2023-03-29T15:05:52.953Z,11240.00
2023-03-29T15:06:52.951Z,9608.00
2023-03-29T15:07:52.925Z,9176.00
2023-03-29T15:09:04.315Z,7400.00
2023-03-29T15:09:53.892Z,9656.00
2023-03-29T15:10:52.890Z,6916.00
2023-03-29T15:11:52.898Z,6988.00
2023-03-29T15:12:52.861Z,9696.00
2023-03-29T15:13:52.853Z,7668.00
2023-03-29T15:14:52.840Z,7416.00
2023-03-29T15:15:52.914Z,7352.00
2023-03-29T15:16:52.820Z,8016.00
2023-03-29T15:17:52.941Z,7640.00
2023-03-29T15:18:52.790Z,7548.00
2023-03-29T15:19:52.765Z,8028.00
2023-03-29T15:20:52.761Z,7304.00
2023-03-29T15:21:52.741Z,7184.00
2023-03-29T15:22:52.731Z,7364.00
2023-03-29T15:23:52.706Z,8712.00
2023-03-29T15:24:52.723Z,11296.00
2023-03-29T15:25:52.694Z,11120.00
2023-03-29T15:26:52.690Z,10372.00
2023-03-29T15:27:52.664Z,7884.00
2023-03-29T15:28:52.645Z,6992.00
2023-03-29T15:29:52.637Z,7132.00
2023-03-29T15:31:04.622Z,6564.00
2023-03-29T15:31:53.691Z,5664.00
2023-03-29T15:32:52.794Z,4964.00
2023-03-29T15:33:52.616Z,4556.00
2023-03-29T15:34:52.564Z,4164.00
2023-03-29T15:35:52.607Z,4212.00
2023-03-29T15:36:52.604Z,4348.00
2023-03-29T15:37:52.521Z,4920.00
2023-03-29T15:38:52.548Z,5840.00
2023-03-29T15:39:52.536Z,7480.00
2023-03-29T15:40:52.526Z,6052.00
2023-03-29T15:41:52.596Z,5376.00
2023-03-29T15:42:52.470Z,4628.00
2023-03-29T15:43:52.446Z,4568.00
2023-03-29T15:44:52.450Z,5100.00
2023-03-29T15:45:52.423Z,5184.00
2023-03-29T15:46:52.468Z,4552.00
2023-03-29T15:47:52.435Z,3848.00
2023-03-29T15:48:52.381Z,3188.00
2023-03-29T15:49:52.380Z,3068.00
2023-03-29T15:50:52.351Z,3236.00
2023-03-29T15:51:52.351Z,3184.00
2023-03-29T15:52:52.902Z,2952.00
2023-03-29T15:53:52.319Z,2596.00
2023-03-29T15:54:52.300Z,2328.00
2023-03-29T15:55:52.309Z,2232.00
2023-03-29T15:56:52.389Z,2128.00
2023-03-29T15:57:52.367Z,2068.00
2023-03-29T15:58:52.258Z,2108.00
2023-03-29T15:59:52.240Z,2072.00
2023-03-29T16:00:52.287Z,1900.00
2023-03-29T16:01:52.259Z,1664.00
2023-03-29T16:02:52.233Z,1476.00
2023-03-29T16:03:52.193Z,1376.00
2023-03-29T16:04:52.187Z,1320.00
2023-03-29T16:05:52.158Z,1248.00
2023-03-29T16:06:52.139Z,1264.00
2023-03-29T16:07:52.140Z,1280.00
2023-03-29T16:08:52.112Z,1256.00
2023-03-29T16:09:52.112Z,1276.00
2023-03-29T16:10:52.097Z,1312.00
2023-03-29T16:11:52.083Z,1356.00
2023-03-29T16:12:52.069Z,1408.00
2023-03-29T16:13:52.083Z,1456.00
2023-03-29T16:14:52.032Z,1436.00
2023-03-29T16:15:52.020Z,1412.00
2023-03-29T16:16:52.106Z,1404.00
2023-03-29T16:17:52.022Z,1400.00
2023-03-29T16:18:51.998Z,1436.00
2023-03-29T16:19:51.973Z,1424.00
2023-03-29T16:20:51.948Z,1360.00
2023-03-29T16:21:51.942Z,1308.00
2023-03-29T16:22:51.937Z,1264.00
2023-03-29T16:23:51.920Z,1232.00
2023-03-29T16:24:51.897Z,1256.00
2023-03-29T16:25:51.889Z,1332.00
2023-03-29T16:26:54.003Z,1392.00